sensor_id;sensor_type;location;lat;lon;timestamp;pressure;altitude;pressure_sealevel;temperature;humidity
54042;BME280;41156;51.508;5.406;2022-11-04T00:02:22;100045.25;;;10.93;100.00
54042;BME280;41156;51.508;5.406;2022-11-04T00:05:23;100049.03;;;10.92;100.00
54042;BME280;41156;51.508;5.406;2022-11-04T00:08:23;100043.25;;;10.89;100.00
54042;BME280;41156;51.508;5.406;2022-11-04T00:11:25;100045.13;;;10.88;100.00
54042;BME280;41156;51.508;5.406;2022-11-04T00:14:44;100053.00;;;10.90;100.00
54042;BME280;41156;51.508;5.406;2022-11-04T00:17:45;100061.13;;;10.90;100.00
54042;BME280;41156;51.508;5.406;2022-11-04T00:20:45;100058.41;;;10.90;100.00
54042;BME280;41156;51.508;5.406;2022-11-04T00:24:05;100068.66;;;10.88;100.00
54042;BME280;41156;51.508;5.406;2022-11-04T00:27:24;100071.25;;;10.83;100.00
54042;BME280;41156;51.508;5.406;2022-11-04T00:30:42;100070.28;;;10.77;100.00
54042;BME280;41156;51.508;5.406;2022-11-04T00:33:43;100072.53;;;10.68;100.00
54042;BME280;41156;51.508;5.406;2022-11-04T00:36:43;100069.13;;;10.61;100.00
54042;BME280;41156;51.508;5.406;2022-11-04T00:39:44;100077.34;;;10.54;100.00
54042;BME280;41156;51.508;5.406;2022-11-04T00:42:44;100076.59;;;10.47;100.00
54042;BME280;41156;51.508;5.406;2022-11-04T00:45:45;100083.53;;;10.43;100.00
54042;BME280;41156;51.508;5.406;2022-11-04T00:48:46;100088.59;;;10.40;100.00
54042;BME280;41156;51.508;5.406;2022-11-04T00:51:47;100091.53;;;10.38;100.00
54042;BME280;41156;51.508;5.406;2022-11-04T00:54:47;100096.34;;;10.36;100.00
54042;BME280;41156;51.508;5.406;2022-11-04T00:57:47;100096.78;;;10.33;100.00
54042;BME280;41156;51.508;5.406;2022-11-04T01:00:48;100102.84;;;10.28;100.00
54042;BME280;41156;51.508;5.406;2022-11-04T01:03:49;100102.94;;;10.22;100.00
54042;BME280;41156;51.508;5.406;2022-11-04T01:06:50;100112.81;;;10.16;100.00
54042;BME280;41156;51.508;5.406;2022-11-04T01:09:50;100112.19;;;10.14;100.00
54042;BME280;41156;51.508;5.406;2022-11-04T01:12:51;100111.38;;;10.13;100.00
54042;BME280;41156;51.508;5.406;2022-11-04T01:15:52;100112.69;;;10.11;100.00
54042;BME280;41156;51.508;5.406;2022-11-04T01:18:52;100125.78;;;10.07;100.00
54042;BME280;41156;51.508;5.406;2022-11-04T01:21:52;100121.91;;;10.03;100.00
54042;BME280;41156;51.508;5.406;2022-11-04T01:24:53;100130.22;;;10.02;100.00
54042;BME280;41156;51.508;5.406;2022-11-04T01:27:54;100129.78;;;10.05;100.00
54042;BME280;41156;51.508;5.406;2022-11-04T01:30:55;100124.38;;;10.05;100.00
54042;BME280;41156;51.508;5.406;2022-11-04T01:33:56;100122.72;;;10.04;100.00
54042;BME280;41156;51.508;5.406;2022-11-04T01:36:57;100120.25;;;10.02;100.00
54042;BME280;41156;51.508;5.406;2022-11-04T01:39:58;100120.84;;;10.04;100.00
54042;BME280;41156;51.508;5.406;2022-11-04T01:42:58;100125.66;;;10.02;100.00
54042;BME280;41156;51.508;5.406;2022-11-04T01:45:59;100128.81;;;9.99;100.00
54042;BME280;41156;51.508;5.406;2022-11-04T01:49:05;100121.19;;;9.96;100.00
54042;BME280;41156;51.508;5.406;2022-11-04T01:52:13;100127.03;;;9.93;100.00
54042;BME280;41156;51.508;5.406;2022-11-04T01:55:18;100127.72;;;9.88;100.00
54042;BME280;41156;51.508;5.406;2022-11-04T01:58:22;100128.03;;;9.80;100.00
54042;BME280;41156;51.508;5.406;2022-11-04T02:01:23;100130.59;;;9.75;100.00
54042;BME280;41156;51.508;5.406;2022-11-04T02:04:24;100132.06;;;9.71;100.00
54042;BME280;41156;51.508;5.406;2022-11-04T02:07:24;100128.19;;;9.67;100.00
54042;BME280;41156;51.508;5.406;2022-11-04T02:10:27;100128.63;;;9.63;100.00
54042;BME280;41156;51.508;5.406;2022-11-04T02:13:29;100126.03;;;9.57;100.00
54042;BME280;41156;51.508;5.406;2022-11-04T02:16:39;100130.81;;;9.55;100.00
54042;BME280;41156;51.508;5.406;2022-11-04T02:22:54;100134.84;;;9.45;100.00
54042;BME280;41156;51.508;5.406;2022-11-04T02:26:06;100144.22;;;9.43;100.00
54042;BME280;41156;51.508;5.406;2022-11-04T02:29:26;100144.47;;;9.41;100.00
54042;BME280;41156;51.508;5.406;2022-11-04T02:39:09;100145.41;;;9.29;100.00
54042;BME280;41156;51.508;5.406;2022-11-04T02:42:21;100147.53;;;9.26;100.00
54042;BME280;41156;51.508;5.406;2022-11-04T02:48:40;100153.34;;;9.23;100.00
54042;BME280;41156;51.508;5.406;2022-11-04T02:51:48;100144.06;;;9.19;100.00
54042;BME280;41156;51.508;5.406;2022-11-04T02:55:03;100155.06;;;9.18;100.00
54042;BME280;41156;51.508;5.406;2022-11-04T02:58:08;100154.44;;;9.16;100.00
54042;BME280;41156;51.508;5.406;2022-11-04T03:01:13;100152.81;;;9.15;100.00
54042;BME280;41156;51.508;5.406;2022-11-04T03:04:20;100150.34;;;9.13;100.00
54042;BME280;41156;51.508;5.406;2022-11-04T03:07:24;100148.09;;;9.10;100.00
54042;BME280;41156;51.508;5.406;2022-11-04T03:10:34;100147.72;;;9.06;100.00
54042;BME280;41156;51.508;5.406;2022-11-04T03:16:46;100159.59;;;8.99;100.00
54042;BME280;41156;51.508;5.406;2022-11-04T03:19:57;100160.88;;;8.96;100.00
54042;BME280;41156;51.508;5.406;2022-11-04T03:22:58;100161.31;;;8.93;100.00
54042;BME280;41156;51.508;5.406;2022-11-04T03:26:25;100161.97;;;8.88;100.00
54042;BME280;41156;51.508;5.406;2022-11-04T03:35:41;100161.44;;;8.80;100.00
54042;BME280;41156;51.508;5.406;2022-11-04T03:38:42;100163.06;;;8.81;100.00
54042;BME280;41156;51.508;5.406;2022-11-04T03:41:47;100168.69;;;8.79;100.00
54042;BME280;41156;51.508;5.406;2022-11-04T03:47:50;100165.81;;;8.74;100.00
54042;BME280;41156;51.508;5.406;2022-11-04T03:50:50;100162.72;;;8.70;100.00
54042;BME280;41156;51.508;5.406;2022-11-04T03:53:51;100167.31;;;8.70;100.00
54042;BME280;41156;51.508;5.406;2022-11-04T04:00:15;100169.00;;;8.64;100.00
54042;BME280;41156;51.508;5.406;2022-11-04T04:03:24;100165.69;;;8.62;100.00
54042;BME280;41156;51.508;5.406;2022-11-04T04:06:30;100163.22;;;8.61;100.00
54042;BME280;41156;51.508;5.406;2022-11-04T04:09:40;100162.63;;;8.59;100.00
54042;BME280;41156;51.508;5.406;2022-11-04T04:12:41;100163.47;;;8.52;100.00
54042;BME280;41156;51.508;5.406;2022-11-04T04:15:48;100175.75;;;8.48;100.00
54042;BME280;41156;51.508;5.406;2022-11-04T04:18:53;100176.56;;;8.42;100.00
54042;BME280;41156;51.508;5.406;2022-11-04T04:22:00;100171.59;;;8.39;100.00
54042;BME280;41156;51.508;5.406;2022-11-04T04:25:05;100176.38;;;8.37;100.00
54042;BME280;41156;51.508;5.406;2022-11-04T04:28:25;100191.13;;;8.34;100.00
54042;BME280;41156;51.508;5.406;2022-11-04T04:31:25;100189.69;;;8.32;100.00
54042;BME280;41156;51.508;5.406;2022-11-04T04:34:47;100191.78;;;8.30;100.00
54042;BME280;41156;51.508;5.406;2022-11-04T04:37:47;100198.19;;;8.29;100.00
54042;BME280;41156;51.508;5.406;2022-11-04T04:40:53;100193.69;;;8.23;100.00
54042;BME280;41156;51.508;5.406;2022-11-04T04:44:26;100204.03;;;8.19;100.00
54042;BME280;41156;51.508;5.406;2022-11-04T04:47:46;100203.63;;;8.15;100.00
54042;BME280;41156;51.508;5.406;2022-11-04T04:50:48;100210.28;;;8.13;100.00
54042;BME280;41156;51.508;5.406;2022-11-04T04:53:50;100208.66;;;8.05;100.00
54042;BME280;41156;51.508;5.406;2022-11-04T04:56:50;100207.88;;;7.98;100.00
54042;BME280;41156;51.508;5.406;2022-11-04T04:59:50;100209.53;;;7.92;100.00
54042;BME280;41156;51.508;5.406;2022-11-04T05:02:51;100212.03;;;7.87;100.00
54042;BME280;41156;51.508;5.406;2022-11-04T05:05:51;100216.00;;;7.85;100.00
54042;BME280;41156;51.508;5.406;2022-11-04T05:08:52;100222.41;;;7.84;100.00
54042;BME280;41156;51.508;5.406;2022-11-04T05:11:52;100218.03;;;7.83;100.00
54042;BME280;41156;51.508;5.406;2022-11-04T05:14:52;100223.66;;;7.81;100.00
54042;BME280;41156;51.508;5.406;2022-11-04T05:17:57;100222.81;;;7.81;100.00
54042;BME280;41156;51.508;5.406;2022-11-04T05:21:05;100223.66;;;7.81;100.00
54042;BME280;41156;51.508;5.406;2022-11-04T05:24:06;100237.72;;;7.83;100.00
54042;BME280;41156;51.508;5.406;2022-11-04T05:27:06;100238.72;;;7.89;100.00
54042;BME280;41156;51.508;5.406;2022-11-04T05:30:07;100237.28;;;7.93;100.00
54042;BME280;41156;51.508;5.406;2022-11-04T05:33:07;100243.25;;;7.95;100.00
54042;BME280;41156;51.508;5.406;2022-11-04T05:36:13;100247.63;;;7.96;100.00
54042;BME280;41156;51.508;5.406;2022-11-04T05:39:13;100250.31;;;7.96;100.00
54042;BME280;41156;51.508;5.406;2022-11-04T05:42:14;100253.59;;;7.98;100.00
54042;BME280;41156;51.508;5.406;2022-11-04T05:45:14;100248.84;;;8.00;100.00
54042;BME280;41156;51.508;5.406;2022-11-04T05:48:14;100256.69;;;8.02;100.00
54042;BME280;41156;51.508;5.406;2022-11-04T05:51:17;100249.72;;;7.74;100.00
54042;BME280;41156;51.508;5.406;2022-11-04T05:54:17;100255.91;;;7.94;100.00
54042;BME280;41156;51.508;5.406;2022-11-04T05:57:17;100260.63;;;7.99;100.00
54042;BME280;41156;51.508;5.406;2022-11-04T06:00:18;100263.31;;;7.99;100.00
54042;BME280;41156;51.508;5.406;2022-11-04T06:03:19;100269.13;;;7.96;100.00
54042;BME280;41156;51.508;5.406;2022-11-04T06:06:20;100267.69;;;7.93;100.00
54042;BME280;41156;51.508;5.406;2022-11-04T06:09:21;100271.63;;;7.91;100.00
54042;BME280;41156;51.508;5.406;2022-11-04T06:12:37;100266.03;;;7.86;100.00
54042;BME280;41156;51.508;5.406;2022-11-04T06:15:38;100276.66;;;7.54;100.00
54042;BME280;41156;51.508;5.406;2022-11-04T06:18:38;100279.34;;;7.40;100.00
54042;BME280;41156;51.508;5.406;2022-11-04T06:21:38;100276.88;;;7.39;100.00
54042;BME280;41156;51.508;5.406;2022-11-04T06:24:39;100281.44;;;7.38;100.00
54042;BME280;41156;51.508;5.406;2022-11-04T06:27:40;100281.84;;;7.35;100.00
54042;BME280;41156;51.508;5.406;2022-11-04T06:30:40;100293.22;;;7.31;100.00
54042;BME280;41156;51.508;5.406;2022-11-04T06:33:40;100291.16;;;7.26;100.00
54042;BME280;41156;51.508;5.406;2022-11-04T06:36:41;100289.50;;;7.25;100.00
54042;BME280;41156;51.508;5.406;2022-11-04T06:39:41;100292.78;;;7.47;100.00
54042;BME280;41156;51.508;5.406;2022-11-04T06:42:41;100298.16;;;7.54;100.00
54042;BME280;41156;51.508;5.406;2022-11-04T06:45:42;100305.22;;;7.55;100.00
54042;BME280;41156;51.508;5.406;2022-11-04T06:48:42;100301.91;;;7.53;100.00
54042;BME280;41156;51.508;5.406;2022-11-04T06:51:43;100306.66;;;7.51;100.00
54042;BME280;41156;51.508;5.406;2022-11-04T06:54:43;100313.88;;;7.50;100.00
54042;BME280;41156;51.508;5.406;2022-11-04T06:57:43;100307.69;;;7.50;100.00
54042;BME280;41156;51.508;5.406;2022-11-04T07:00:50;100324.66;;;7.50;100.00
54042;BME280;41156;51.508;5.406;2022-11-04T07:03:57;100329.59;;;7.53;100.00
54042;BME280;41156;51.508;5.406;2022-11-04T07:06:58;100331.69;;;7.58;100.00
54042;BME280;41156;51.508;5.406;2022-11-04T07:09:58;100328.16;;;7.64;100.00
54042;BME280;41156;51.508;5.406;2022-11-04T07:12:58;100338.69;;;7.72;100.00
54042;BME280;41156;51.508;5.406;2022-11-04T07:15:59;100337.44;;;7.82;100.00
54042;BME280;41156;51.508;5.406;2022-11-04T07:18:59;100338.88;;;7.91;100.00
54042;BME280;41156;51.508;5.406;2022-11-04T07:21:59;100341.34;;;7.99;100.00
54042;BME280;41156;51.508;5.406;2022-11-04T07:24:59;100349.19;;;8.07;100.00
54042;BME280;41156;51.508;5.406;2022-11-04T07:28:00;100348.97;;;8.15;100.00
54042;BME280;41156;51.508;5.406;2022-11-04T07:31:02;100347.38;;;7.88;100.00
54042;BME280;41156;51.508;5.406;2022-11-04T07:34:02;100347.59;;;7.86;100.00
54042;BME280;41156;51.508;5.406;2022-11-04T07:37:03;100349.63;;;7.91;100.00
54042;BME280;41156;51.508;5.406;2022-11-04T07:40:04;100352.53;;;7.96;100.00
54042;BME280;41156;51.508;5.406;2022-11-04T07:43:04;100361.84;;;8.00;100.00
54042;BME280;41156;51.508;5.406;2022-11-04T07:46:11;100363.63;;;8.46;100.00
54042;BME280;41156;51.508;5.406;2022-11-04T07:49:11;100370.81;;;8.59;100.00
54042;BME280;41156;51.508;5.406;2022-11-04T07:52:12;100368.72;;;8.68;100.00
54042;BME280;41156;51.508;5.406;2022-11-04T07:55:12;100369.50;;;8.75;100.00
54042;BME280;41156;51.508;5.406;2022-11-04T07:58:18;100371.75;;;8.85;100.00
54042;BME280;41156;51.508;5.406;2022-11-04T08:01:20;100376.88;;;8.93;100.00
54042;BME280;41156;51.508;5.406;2022-11-04T08:04:22;100375.56;;;9.02;100.00
54042;BME280;41156;51.508;5.406;2022-11-04T08:07:22;100374.28;;;9.12;100.00
54042;BME280;41156;51.508;5.406;2022-11-04T08:10:24;100380.25;;;9.20;100.00
54042;BME280;41156;51.508;5.406;2022-11-04T08:13:33;100384.94;;;9.32;100.00
54042;BME280;41156;51.508;5.406;2022-11-04T08:16:34;100391.75;;;9.41;100.00
54042;BME280;41156;51.508;5.406;2022-11-04T08:19:34;100387.13;;;9.48;100.00
54042;BME280;41156;51.508;5.406;2022-11-04T08:22:34;100391.38;;;9.56;100.00
54042;BME280;41156;51.508;5.406;2022-11-04T08:25:34;100394.28;;;9.61;100.00
54042;BME280;41156;51.508;5.406;2022-11-04T08:28:35;100395.09;;;9.61;100.00
54042;BME280;41156;51.508;5.406;2022-11-04T08:31:35;100408.75;;;9.67;100.00
54042;BME280;41156;51.508;5.406;2022-11-04T08:34:36;100413.50;;;9.71;100.00
54042;BME280;41156;51.508;5.406;2022-11-04T08:37:37;100416.16;;;9.78;100.00
54042;BME280;41156;51.508;5.406;2022-11-04T08:40:37;100422.75;;;9.82;100.00
54042;BME280;41156;51.508;5.406;2022-11-04T08:43:38;100426.03;;;9.84;100.00
54042;BME280;41156;51.508;5.406;2022-11-04T08:46:40;100423.75;;;9.88;100.00
54042;BME280;41156;51.508;5.406;2022-11-04T08:49:41;100426.38;;;9.94;100.00
54042;BME280;41156;51.508;5.406;2022-11-04T08:52:41;100431.94;;;9.99;100.00
54042;BME280;41156;51.508;5.406;2022-11-04T08:55:42;100437.13;;;10.01;100.00
54042;BME280;41156;51.508;5.406;2022-11-04T08:58:42;100434.44;;;10.01;100.00
54042;BME280;41156;51.508;5.406;2022-11-04T09:01:43;100431.94;;;9.99;100.00
54042;BME280;41156;51.508;5.406;2022-11-04T09:04:43;100444.00;;;9.97;100.00
54042;BME280;41156;51.508;5.406;2022-11-04T09:07:43;100450.00;;;9.99;100.00
54042;BME280;41156;51.508;5.406;2022-11-04T09:10:45;100451.22;;;10.03;100.00
54042;BME280;41156;51.508;5.406;2022-11-04T09:13:46;100457.38;;;10.10;100.00
54042;BME280;41156;51.508;5.406;2022-11-04T09:16:46;100471.03;;;10.15;100.00
54042;BME280;41156;51.508;5.406;2022-11-04T09:19:46;100475.56;;;10.22;100.00
54042;BME280;41156;51.508;5.406;2022-11-04T09:22:47;100475.28;;;10.30;100.00
54042;BME280;41156;51.508;5.406;2022-11-04T09:25:49;100473.38;;;10.37;100.00
54042;BME280;41156;51.508;5.406;2022-11-04T09:28:57;100472.28;;;10.45;100.00
54042;BME280;41156;51.508;5.406;2022-11-04T09:31:57;100480.75;;;10.48;100.00
54042;BME280;41156;51.508;5.406;2022-11-04T09:34:57;100487.97;;;10.54;100.00
54042;BME280;41156;51.508;5.406;2022-11-04T09:37:58;100495.63;;;10.58;100.00
54042;BME280;41156;51.508;5.406;2022-11-04T09:40:59;100497.63;;;10.62;100.00
54042;BME280;41156;51.508;5.406;2022-11-04T09:47:11;100507.13;;;10.71;100.00
54042;BME280;41156;51.508;5.406;2022-11-04T09:50:24;100511.88;;;10.76;100.00
54042;BME280;41156;51.508;5.406;2022-11-04T09:53:39;100514.50;;;10.83;100.00
54042;BME280;41156;51.508;5.406;2022-11-04T09:56:43;100509.84;;;10.90;100.00
54042;BME280;41156;51.508;5.406;2022-11-04T09:59:45;100515.16;;;10.97;100.00
54042;BME280;41156;51.508;5.406;2022-11-04T10:10:02;100525.38;;;11.13;100.00
54042;BME280;41156;51.508;5.406;2022-11-04T10:13:30;100534.00;;;11.22;100.00
54042;BME280;41156;51.508;5.406;2022-11-04T10:23:32;100528.53;;;11.59;100.00
54042;BME280;41156;51.508;5.406;2022-11-04T10:26:53;100538.94;;;11.74;100.00
54042;BME280;41156;51.508;5.406;2022-11-04T10:30:14;100540.06;;;11.84;100.00
54042;BME280;41156;51.508;5.406;2022-11-04T10:36:25;100552.13;;;12.00;100.00
54042;BME280;41156;51.508;5.406;2022-11-04T10:39:31;100556.72;;;12.00;100.00
54042;BME280;41156;51.508;5.406;2022-11-04T10:42:34;100561.69;;;12.03;100.00
54042;BME280;41156;51.508;5.406;2022-11-04T10:52:32;100590.06;;;12.12;100.00
54042;BME280;41156;51.508;5.406;2022-11-04T10:59:17;100584.94;;;12.34;100.00
54042;BME280;41156;51.508;5.406;2022-11-04T11:02:47;100580.47;;;12.40;100.00
54042;BME280;41156;51.508;5.406;2022-11-04T11:05:49;100578.34;;;12.54;100.00
54042;BME280;41156;51.508;5.406;2022-11-04T11:08:51;100576.50;;;12.54;100.00
54042;BME280;41156;51.508;5.406;2022-11-04T11:18:24;100577.19;;;12.50;100.00
54042;BME280;41156;51.508;5.406;2022-11-04T11:21:41;100585.19;;;12.45;100.00
54042;BME280;41156;51.508;5.406;2022-11-04T11:24:42;100584.63;;;12.43;100.00
54042;BME280;41156;51.508;5.406;2022-11-04T11:27:47;100595.09;;;12.39;100.00
54042;BME280;41156;51.508;5.406;2022-11-04T11:33:52;100590.03;;;12.54;100.00
54042;BME280;41156;51.508;5.406;2022-11-04T11:36:54;100591.22;;;12.82;100.00
54042;BME280;41156;51.508;5.406;2022-11-04T11:39:56;100589.69;;;12.98;100.00
54042;BME280;41156;51.508;5.406;2022-11-04T11:42:58;100592.19;;;12.88;100.00
54042;BME280;41156;51.508;5.406;2022-11-04T11:46:00;100585.91;;;13.11;100.00
54042;BME280;41156;51.508;5.406;2022-11-04T11:49:03;100577.16;;;13.09;100.00
54042;BME280;41156;51.508;5.406;2022-11-04T11:55:29;100582.03;;;12.95;100.00
54042;BME280;41156;51.508;5.406;2022-11-04T11:58:39;100589.59;;;12.81;100.00
54042;BME280;41156;51.508;5.406;2022-11-04T12:01:47;100587.69;;;12.93;100.00
54042;BME280;41156;51.508;5.406;2022-11-04T12:04:50;100599.22;;;13.36;100.00
54042;BME280;41156;51.508;5.406;2022-11-04T12:07:59;100600.38;;;13.40;100.00
54042;BME280;41156;51.508;5.406;2022-11-04T12:11:07;100602.63;;;13.43;100.00
54042;BME280;41156;51.508;5.406;2022-11-04T12:14:22;100609.25;;;13.47;100.00
54042;BME280;41156;51.508;5.406;2022-11-04T12:27:24;100622.31;;;13.50;98.78
54042;BME280;41156;51.508;5.406;2022-11-04T12:30:35;100617.84;;;13.09;100.00
54042;BME280;41156;51.508;5.406;2022-11-04T12:37:07;100636.38;;;13.12;100.00
54042;BME280;41156;51.508;5.406;2022-11-04T12:43:54;100659.81;;;13.65;92.30
54042;BME280;41156;51.508;5.406;2022-11-04T12:50:28;100653.75;;;13.75;100.00
54042;BME280;41156;51.508;5.406;2022-11-04T12:53:39;100652.00;;;13.81;100.00
54042;BME280;41156;51.508;5.406;2022-11-04T12:56:44;100650.56;;;13.78;90.50
54042;BME280;41156;51.508;5.406;2022-11-04T13:03:19;100658.13;;;13.36;99.85
54042;BME280;41156;51.508;5.406;2022-11-04T13:06:28;100661.88;;;13.35;97.33
54042;BME280;41156;51.508;5.406;2022-11-04T13:09:51;100664.69;;;13.51;100.00
54042;BME280;41156;51.508;5.406;2022-11-04T13:12:54;100678.84;;;13.18;100.00
54042;BME280;41156;51.508;5.406;2022-11-04T13:15:58;100679.06;;;13.52;100.00
54042;BME280;41156;51.508;5.406;2022-11-04T13:19:01;100687.31;;;13.57;100.00
54042;BME280;41156;51.508;5.406;2022-11-04T13:22:15;100682.63;;;13.64;100.00
54042;BME280;41156;51.508;5.406;2022-11-04T13:25:32;100684.97;;;13.73;95.09
54042;BME280;41156;51.508;5.406;2022-11-04T13:28:35;100694.16;;;13.72;100.00
54042;BME280;41156;51.508;5.406;2022-11-04T13:31:50;100695.09;;;13.65;100.00
54042;BME280;41156;51.508;5.406;2022-11-04T13:35:22;100707.41;;;13.56;96.94
54042;BME280;41156;51.508;5.406;2022-11-04T13:44:52;100734.31;;;13.58;100.00
54042;BME280;41156;51.508;5.406;2022-11-04T13:47:57;100737.28;;;13.56;100.00
54042;BME280;41156;51.508;5.406;2022-11-04T13:51:06;100736.59;;;13.49;100.00
54042;BME280;41156;51.508;5.406;2022-11-04T13:54:23;100731.97;;;13.38;93.73
54042;BME280;41156;51.508;5.406;2022-11-04T13:57:27;100744.59;;;13.32;100.00
54042;BME280;41156;51.508;5.406;2022-11-04T14:00:30;100746.91;;;13.28;100.00
54042;BME280;41156;51.508;5.406;2022-11-04T14:03:47;100754.94;;;13.23;94.41
54042;BME280;41156;51.508;5.406;2022-11-04T14:06:59;100752.22;;;13.23;100.00
54042;BME280;41156;51.508;5.406;2022-11-04T14:09:59;100755.53;;;13.25;100.00
54042;BME280;41156;51.508;5.406;2022-11-04T14:16:38;100755.41;;;13.20;100.00
54042;BME280;41156;51.508;5.406;2022-11-04T14:19:54;100755.88;;;13.17;100.00
54042;BME280;41156;51.508;5.406;2022-11-04T14:23:01;100762.97;;;13.18;100.00
54042;BME280;41156;51.508;5.406;2022-11-04T14:26:07;100766.59;;;13.12;100.00
54042;BME280;41156;51.508;5.406;2022-11-04T14:29:16;100783.94;;;13.11;97.14
54042;BME280;41156;51.508;5.406;2022-11-04T14:32:24;100784.88;;;13.05;98.98
54042;BME280;41156;51.508;5.406;2022-11-04T14:35:25;100793.25;;;13.03;100.00
54042;BME280;41156;51.508;5.406;2022-11-04T14:38:31;100792.53;;;12.96;98.20
54042;BME280;41156;51.508;5.406;2022-11-04T14:47:46;100803.47;;;12.89;100.00
54042;BME280;41156;51.508;5.406;2022-11-04T14:50:52;100811.84;;;12.88;100.00
54042;BME280;41156;51.508;5.406;2022-11-04T14:54:19;100815.38;;;12.88;99.96
54042;BME280;41156;51.508;5.406;2022-11-04T14:57:22;100822.09;;;12.86;100.00
54042;BME280;41156;51.508;5.406;2022-11-04T15:00:36;100832.81;;;12.81;100.00
54042;BME280;41156;51.508;5.406;2022-11-04T15:03:38;100839.97;;;12.75;100.00
54042;BME280;41156;51.508;5.406;2022-11-04T15:06:38;100849.16;;;12.74;100.00
54042;BME280;41156;51.508;5.406;2022-11-04T15:09:40;100847.97;;;12.70;100.00
54042;BME280;41156;51.508;5.406;2022-11-04T15:12:46;100847.00;;;12.64;100.00
54042;BME280;41156;51.508;5.406;2022-11-04T15:15:52;100849.78;;;12.57;100.00
54042;BME280;41156;51.508;5.406;2022-11-04T15:18:55;100860.72;;;12.51;100.00
54042;BME280;41156;51.508;5.406;2022-11-04T15:22:05;100870.94;;;12.49;96.91
54042;BME280;41156;51.508;5.406;2022-11-04T15:25:09;100866.31;;;12.37;99.85
54042;BME280;41156;51.508;5.406;2022-11-04T15:28:16;100878.84;;;12.32;100.00
54042;BME280;41156;51.508;5.406;2022-11-04T15:31:20;100887.50;;;12.22;98.64
54042;BME280;41156;51.508;5.406;2022-11-04T15:34:22;100887.63;;;12.09;97.85
54042;BME280;41156;51.508;5.406;2022-11-04T15:37:24;100892.06;;;12.03;98.79
54042;BME280;41156;51.508;5.406;2022-11-04T15:40:27;100890.03;;;11.98;99.88
54042;BME280;41156;51.508;5.406;2022-11-04T15:43:28;100895.91;;;11.89;98.53
54042;BME280;41156;51.508;5.406;2022-11-04T15:46:28;100889.97;;;11.80;99.53
54042;BME280;41156;51.508;5.406;2022-11-04T15:49:31;100885.66;;;11.72;98.63
54042;BME280;41156;51.508;5.406;2022-11-04T15:52:31;100888.41;;;11.65;100.00
54042;BME280;41156;51.508;5.406;2022-11-04T15:55:34;100895.75;;;11.58;100.00
54042;BME280;41156;51.508;5.406;2022-11-04T15:58:40;100893.53;;;11.48;91.40
54042;BME280;41156;51.508;5.406;2022-11-04T16:01:45;100896.69;;;11.45;98.02
54042;BME280;41156;51.508;5.406;2022-11-04T16:08:20;100908.50;;;11.26;98.36
54042;BME280;41156;51.508;5.406;2022-11-04T16:11:21;100912.03;;;11.26;100.00
54042;BME280;41156;51.508;5.406;2022-11-04T16:14:23;100923.25;;;11.23;100.00
54042;BME280;41156;51.508;5.406;2022-11-04T16:17:25;100927.25;;;11.21;100.00
54042;BME280;41156;51.508;5.406;2022-11-04T16:20:26;100927.91;;;11.16;100.00
54042;BME280;41156;51.508;5.406;2022-11-04T16:23:26;100933.53;;;11.15;100.00
54042;BME280;41156;51.508;5.406;2022-11-04T16:26:37;100940.19;;;11.12;99.43
54042;BME280;41156;51.508;5.406;2022-11-04T16:29:38;100954.75;;;11.11;100.00
54042;BME280;41156;51.508;5.406;2022-11-04T16:32:47;100944.38;;;11.08;100.00
54042;BME280;41156;51.508;5.406;2022-11-04T16:35:47;100956.22;;;11.07;100.00
54042;BME280;41156;51.508;5.406;2022-11-04T16:38:59;100962.06;;;11.04;99.71
54042;BME280;41156;51.508;5.406;2022-11-04T16:42:04;100969.34;;;11.03;100.00
54042;BME280;41156;51.508;5.406;2022-11-04T16:45:05;100966.25;;;11.00;100.00
54042;BME280;41156;51.508;5.406;2022-11-04T16:48:08;100969.16;;;10.98;100.00
54042;BME280;41156;51.508;5.406;2022-11-04T16:51:19;100981.00;;;10.97;100.00
54042;BME280;41156;51.508;5.406;2022-11-04T16:54:21;100988.91;;;10.99;100.00
54042;BME280;41156;51.508;5.406;2022-11-04T16:57:23;100988.91;;;10.99;100.00
54042;BME280;41156;51.508;5.406;2022-11-04T17:00:25;100990.59;;;11.00;100.00
54042;BME280;41156;51.508;5.406;2022-11-04T17:03:26;100992.47;;;10.99;100.00
54042;BME280;41156;51.508;5.406;2022-11-04T17:06:26;101002.22;;;11.00;100.00
54042;BME280;41156;51.508;5.406;2022-11-04T17:09:26;101006.41;;;10.96;100.00
54042;BME280;41156;51.508;5.406;2022-11-04T17:12:27;101009.31;;;10.95;100.00
54042;BME280;41156;51.508;5.406;2022-11-04T17:15:27;101014.72;;;10.95;100.00
54042;BME280;41156;51.508;5.406;2022-11-04T17:18:32;101021.59;;;10.90;100.00
54042;BME280;41156;51.508;5.406;2022-11-04T17:21:32;101025.97;;;10.91;100.00
54042;BME280;41156;51.508;5.406;2022-11-04T17:24:34;101037.00;;;10.90;100.00
54042;BME280;41156;51.508;5.406;2022-11-04T17:27:34;101030.97;;;10.88;100.00
54042;BME280;41156;51.508;5.406;2022-11-04T17:30:35;101033.06;;;10.86;100.00
54042;BME280;41156;51.508;5.406;2022-11-04T17:33:35;101039.72;;;10.83;100.00
54042;BME280;41156;51.508;5.406;2022-11-04T17:36:36;101043.66;;;10.81;100.00
54042;BME280;41156;51.508;5.406;2022-11-04T17:39:36;101050.53;;;10.83;100.00
54042;BME280;41156;51.508;5.406;2022-11-04T17:42:36;101058.84;;;10.82;100.00
54042;BME280;41156;51.508;5.406;2022-11-04T17:45:56;101052.63;;;10.81;100.00
54042;BME280;41156;51.508;5.406;2022-11-04T17:49:24;101049.31;;;10.79;100.00
54042;BME280;41156;51.508;5.406;2022-11-04T17:52:24;101043.25;;;10.77;100.00
54042;BME280;41156;51.508;5.406;2022-11-04T17:55:25;101054.28;;;10.76;100.00